Time;durP1;ratioP1;P1;durP2;ratioP2;P2;SDS_P1;SDS_P2;PMS_P1;PMS_P2;Temp;Humidity;BMP_temperature;BMP_pressure;BME280_temperature;BME280_humidity;BME280_pressure;Samples;Min_cycle;Max_cycle;Signal;HPM_P1;HPM_P2
2023/10/29 00:00:32;;;;;;;7.70;2.65;;;11.40;99.90;;;;;;5017341;28;20128;-72
2023/10/29 00:02:57;;;;;;;8.60;4.15;;;11.40;99.90;;;;;;5033609;28;20041;-72
2023/10/29 00:05:24;;;;;;;6.57;3.45;;;11.40;99.90;;;;;;5017202;28;20045;-71
2023/10/29 00:07:49;;;;;;;5.97;2.70;;;11.50;99.90;;;;;;5033626;28;20087;-72
2023/10/29 00:10:18;;;;;;;3.20;1.48;;;11.50;99.90;;;;;;5033583;28;20041;-71
2023/10/29 00:12:44;;;;;;;7.53;3.15;;;11.50;99.90;;;;;;5033278;28;20151;-71
2023/10/29 00:15:10;;;;;;;6.63;3.30;;;11.50;99.90;;;;;;5033449;28;20084;-71
2023/10/29 00:17:36;;;;;;;8.52;4.07;;;11.60;99.90;;;;;;5033402;28;20044;-71
2023/10/29 00:20:06;;;;;;;7.30;4.60;;;11.60;99.90;;;;;;5033633;28;20091;-71
2023/10/29 00:22:32;;;;;;;10.65;4.78;;;11.50;99.90;;;;;;5033368;28;20048;-71
2023/10/29 00:24:58;;;;;;;8.30;4.45;;;11.50;99.90;;;;;;5033459;28;20041;-71
2023/10/29 00:27:24;;;;;;;8.15;4.40;;;11.60;99.90;;;;;;5017028;28;20052;-71
2023/10/29 00:29:49;;;;;;;7.75;4.80;;;11.60;99.90;;;;;;5016743;28;20128;-71
2023/10/29 00:32:18;;;;;;;9.23;5.90;;;11.60;99.90;;;;;;5032953;28;20375;-71
2023/10/29 00:34:46;;;;;;;7.18;3.78;;;11.60;99.90;;;;;;5033099;28;20041;-71
2023/10/29 00:37:12;;;;;;;7.78;3.88;;;11.60;99.90;;;;;;5016912;28;20125;-71
2023/10/29 00:39:38;;;;;;;7.55;5.18;;;11.60;99.90;;;;;;5016465;28;20042;-70
2023/10/29 00:42:04;;;;;;;7.50;4.57;;;11.50;99.90;;;;;;5033150;28;20049;-72
2023/10/29 00:44:29;;;;;;;8.18;5.50;;;11.50;99.90;;;;;;5032898;28;20076;-72
2023/10/29 00:46:55;;;;;;;8.88;6.13;;;11.50;99.90;;;;;;5016783;28;20500;-72
2023/10/29 00:49:21;;;;;;;10.23;6.20;;;11.50;99.90;;;;;;5016424;28;20055;-71
2023/10/29 00:51:48;;;;;;;9.15;6.15;;;11.50;99.90;;;;;;5032307;28;20457;-72
2023/10/29 00:54:14;;;;;;;7.32;4.38;;;11.50;99.90;;;;;;5016360;28;20041;-72
2023/10/29 00:56:40;;;;;;;11.15;4.85;;;11.60;99.90;;;;;;5049320;28;20041;-72
2023/10/29 00:59:11;;;;;;;6.20;3.15;;;11.70;99.90;;;;;;5032608;28;20190;-72
2023/10/29 01:01:37;;;;;;;7.95;5.15;;;11.80;99.90;;;;;;5032654;28;20422;-72
2023/10/29 01:04:04;;;;;;;7.68;5.25;;;11.80;99.90;;;;;;5032503;28;20045;-72
2023/10/29 01:06:31;;;;;;;8.00;4.90;;;11.80;99.90;;;;;;5016189;28;20055;-72
2023/10/29 01:08:58;;;;;;;8.52;5.50;;;11.80;99.90;;;;;;5032745;28;20049;-73
2023/10/29 01:11:23;;;;;;;7.05;4.88;;;11.80;99.90;;;;;;5032340;28;20076;-73
2023/10/29 01:13:50;;;;;;;7.18;4.40;;;11.80;99.90;;;;;;5032372;28;20046;-74
2023/10/29 01:16:15;;;;;;;6.40;4.00;;;11.80;99.90;;;;;;5032571;28;20041;-73
2023/10/29 01:18:41;;;;;;;8.90;5.25;;;11.80;99.90;;;;;;5016154;28;20551;-72
2023/10/29 01:21:08;;;;;;;7.70;5.70;;;11.80;99.90;;;;;;5032600;28;20045;-73
2023/10/29 01:23:35;;;;;;;10.95;5.47;;;11.80;99.90;;;;;;5032276;28;20041;-73
2023/10/29 01:26:01;;;;;;;9.02;5.45;;;11.80;99.90;;;;;;5032236;28;20041;-73
2023/10/29 01:28:27;;;;;;;8.15;5.13;;;11.80;99.90;;;;;;5032146;28;20041;-73
2023/10/29 01:30:53;;;;;;;8.18;5.40;;;11.90;99.90;;;;;;5031987;28;20054;-73
2023/10/29 01:33:19;;;;;;;7.28;5.15;;;11.90;99.90;;;;;;5032157;28;20037;-73
2023/10/29 01:35:45;;;;;;;9.95;5.38;;;11.90;99.90;;;;;;5032318;28;20197;-74
2023/10/29 01:38:11;;;;;;;8.85;6.43;;;11.90;99.90;;;;;;5032044;28;20052;-73
2023/10/29 01:40:37;;;;;;;8.48;5.78;;;11.90;99.90;;;;;;5032124;28;20045;-73
2023/10/29 01:43:03;;;;;;;7.30;4.35;;;11.90;99.90;;;;;;5032014;28;20091;-73
2023/10/29 01:45:28;;;;;;;8.73;5.28;;;12.00;99.90;;;;;;5032004;28;20471;-73
2023/10/29 01:47:54;;;;;;;5.63;3.10;;;12.00;99.90;;;;;;5032106;28;20041;-73
2023/10/29 01:50:20;;;;;;;7.88;4.80;;;12.00;99.90;;;;;;5031858;28;20135;-73
2023/10/29 01:52:45;;;;;;;8.30;4.60;;;12.00;99.90;;;;;;5015377;28;20075;-73
2023/10/29 01:55:11;;;;;;;9.15;5.25;;;12.00;99.90;;;;;;5031752;28;20080;-73
2023/10/29 01:57:37;;;;;;;9.02;5.53;;;12.10;99.90;;;;;;5015662;28;20112;-73
2023/10/29 02:00:07;;;;;;;7.93;4.20;;;12.00;99.90;;;;;;5032053;28;20037;-73
2023/10/29 02:02:34;;;;;;;7.93;4.18;;;12.10;99.90;;;;;;5032671;28;20052;-73
2023/10/29 02:05:01;;;;;;;7.20;4.50;;;12.10;99.90;;;;;;5035824;28;20056;-73
2023/10/29 02:07:27;;;;;;;8.20;4.00;;;12.20;99.90;;;;;;5036172;28;20045;-73
2023/10/29 02:09:52;;;;;;;7.57;3.90;;;12.10;99.90;;;;;;5019442;28;20128;-73
2023/10/29 02:12:18;;;;;;;8.07;3.80;;;12.20;99.90;;;;;;5035614;28;20053;-74
2023/10/29 02:14:44;;;;;;;8.70;3.80;;;12.20;99.90;;;;;;5035655;28;20047;-73
2023/10/29 02:17:13;;;;;;;6.93;3.50;;;12.20;99.90;;;;;;5019219;28;20042;-73
2023/10/29 02:19:38;;;;;;;8.20;3.33;;;12.20;99.90;;;;;;5035553;28;20103;-74
2023/10/29 02:22:05;;;;;;;5.60;2.95;;;12.20;99.90;;;;;;5035858;28;20046;-74
2023/10/29 02:24:31;;;;;;;6.90;3.47;;;12.20;99.90;;;;;;5035858;28;20520;-73
2023/10/29 02:26:56;;;;;;;8.95;3.75;;;12.20;99.90;;;;;;5035745;28;20053;-73
2023/10/29 02:29:22;;;;;;;7.35;3.38;;;12.20;99.90;;;;;;5019179;28;20045;-73
2023/10/29 02:31:48;;;;;;;6.45;3.20;;;12.20;99.90;;;;;;5035348;28;20045;-73
2023/10/29 02:34:13;;;;;;;6.72;3.30;;;12.30;99.90;;;;;;5035355;28;20029;-73
2023/10/29 02:36:39;;;;;;;7.25;3.22;;;12.30;99.90;;;;;;5035331;28;20045;-73
2023/10/29 02:39:06;;;;;;;5.95;2.97;;;12.30;99.90;;;;;;5035311;28;20060;-73
2023/10/29 02:41:32;;;;;;;7.10;3.33;;;12.30;99.90;;;;;;5035241;28;20049;-73
2023/10/29 02:43:58;;;;;;;6.78;2.83;;;12.30;99.90;;;;;;5035364;28;20409;-73
2023/10/29 02:46:25;;;;;;;6.38;2.88;;;12.30;99.90;;;;;;5035203;28;20046;-73
2023/10/29 02:48:51;;;;;;;5.13;2.20;;;12.30;99.90;;;;;;5035047;28;20140;-74
2023/10/29 02:51:16;;;;;;;6.65;2.80;;;12.40;99.90;;;;;;5035057;28;20120;-73
2023/10/29 02:53:42;;;;;;;5.80;2.40;;;12.40;99.90;;;;;;5035268;28;20394;-73
2023/10/29 02:56:08;;;;;;;7.65;2.67;;;12.40;99.90;;;;;;5035163;28;20041;-73
2023/10/29 02:58:35;;;;;;;7.05;2.92;;;12.40;99.90;;;;;;5034956;28;20128;-73
2023/10/29 03:01:05;;;;;;;7.30;2.80;;;12.40;99.90;;;;;;5018448;28;20045;-73
2023/10/29 03:03:31;;;;;;;6.68;2.90;;;12.40;99.90;;;;;;5035155;28;20056;-73
2023/10/29 03:05:57;;;;;;;6.82;2.72;;;12.40;99.90;;;;;;5034768;28;20044;-73
2023/10/29 03:08:23;;;;;;;6.75;2.42;;;12.40;99.90;;;;;;5034728;28;20045;-73
2023/10/29 03:10:50;;;;;;;6.57;2.30;;;12.50;99.90;;;;;;5034856;28;20041;-73
2023/10/29 03:13:16;;;;;;;5.82;2.30;;;12.50;99.90;;;;;;5017777;28;20069;-74
2023/10/29 03:15:41;;;;;;;7.28;2.50;;;12.50;99.90;;;;;;5018195;28;20038;-73
2023/10/29 03:18:07;;;;;;;6.68;2.47;;;12.60;99.90;;;;;;5018083;28;20049;-73
2023/10/29 03:20:33;;;;;;;9.25;2.45;;;12.60;99.90;;;;;;5034554;28;20076;-74
2023/10/29 03:22:58;;;;;;;6.07;2.20;;;12.60;99.90;;;;;;5018337;28;20041;-73
2023/10/29 03:25:24;;;;;;;7.35;2.47;;;12.60;99.90;;;;;;5034657;28;20057;-73
2023/10/29 03:27:50;;;;;;;7.18;2.35;;;12.60;99.90;;;;;;5018028;28;20046;-72
2023/10/29 03:30:15;;;;;;;4.88;1.88;;;12.60;99.90;;;;;;5034535;28;20042;-71
2023/10/29 03:32:41;;;;;;;7.30;2.28;;;12.60;99.90;;;;;;5034228;28;20128;-73
2023/10/29 03:35:07;;;;;;;5.70;2.00;;;12.60;99.90;;;;;;5034435;28;20037;-72
2023/10/29 03:37:33;;;;;;;8.48;2.05;;;12.60;99.90;;;;;;5034218;28;20126;-72
2023/10/29 03:39:58;;;;;;;5.57;1.92;;;12.60;99.90;;;;;;5017755;28;20041;-72
2023/10/29 03:42:24;;;;;;;6.40;2.22;;;12.70;99.90;;;;;;5034108;28;20099;-72
2023/10/29 03:44:50;;;;;;;5.45;1.90;;;12.70;99.90;;;;;;5034342;28;20099;-72
2023/10/29 03:47:16;;;;;;;5.57;2.40;;;12.70;99.90;;;;;;5017512;28;20128;-72
2023/10/29 03:49:44;;;;;;;6.47;2.05;;;12.70;99.90;;;;;;5017644;28;20128;-72
2023/10/29 03:52:10;;;;;;;5.82;1.92;;;12.70;99.90;;;;;;5017390;28;20067;-72
2023/10/29 03:54:36;;;;;;;7.45;2.13;;;12.70;99.90;;;;;;5033815;28;20042;-72
2023/10/29 03:57:02;;;;;;;5.60;2.10;;;12.80;99.90;;;;;;5034126;28;20076;-72
2023/10/29 03:59:27;;;;;;;6.43;2.08;;;12.80;99.90;;;;;;5034136;28;20080;-71
2023/10/29 04:01:53;;;;;;;4.88;1.80;;;12.70;99.90;;;;;;5033815;28;20045;-72
2023/10/29 04:04:19;;;;;;;6.38;2.13;;;12.70;99.90;;;;;;5017366;28;20041;-72
2023/10/29 04:06:44;;;;;;;5.82;1.92;;;12.70;99.90;;;;;;5033611;28;20387;-72
2023/10/29 04:09:10;;;;;;;4.90;1.90;;;12.70;99.90;;;;;;5017164;28;20412;-72
2023/10/29 04:11:36;;;;;;;4.95;1.90;;;12.70;99.90;;;;;;5033335;28;20065;-72
2023/10/29 04:14:02;;;;;;;6.57;1.90;;;12.70;99.90;;;;;;5033456;28;20064;-72
2023/10/29 04:16:28;;;;;;;6.13;1.90;;;12.70;99.90;;;;;;5033455;28;20041;-72
2023/10/29 04:18:54;;;;;;;4.50;1.63;;;12.70;99.90;;;;;;5016891;28;20042;-72
2023/10/29 04:21:19;;;;;;;6.50;1.98;;;12.70;99.90;;;;;;5033558;28;20386;-72
2023/10/29 04:23:45;;;;;;;6.13;1.70;;;12.70;99.90;;;;;;5016921;28;20037;-72
2023/10/29 04:26:11;;;;;;;5.20;1.67;;;12.70;99.90;;;;;;5032413;28;20557;-72
2023/10/29 04:28:37;;;;;;;4.35;1.60;;;12.80;99.90;;;;;;5033523;28;20107;-73
2023/10/29 04:31:03;;;;;;;5.28;1.55;;;12.90;99.90;;;;;;5033321;28;20489;-72
2023/10/29 04:33:29;;;;;;;5.90;1.60;;;12.90;99.90;;;;;;5033470;28;20177;-72
2023/10/29 04:35:55;;;;;;;4.85;1.40;;;12.90;99.90;;;;;;5033641;28;20097;-72
2023/10/29 04:38:20;;;;;;;6.13;1.55;;;12.90;99.90;;;;;;5033176;28;20040;-73
2023/10/29 04:40:46;;;;;;;4.05;1.40;;;13.00;99.90;;;;;;5016743;28;20052;-72
2023/10/29 04:43:12;;;;;;;5.18;1.58;;;12.90;99.90;;;;;;5032928;28;20064;-72
2023/10/29 04:45:37;;;;;;;5.05;1.58;;;12.90;99.90;;;;;;5033256;28;20053;-72
2023/10/29 04:48:03;;;;;;;5.38;1.88;;;12.90;99.90;;;;;;5016404;28;20045;-72
2023/10/29 04:50:30;;;;;;;6.82;1.40;;;12.90;99.90;;;;;;5033203;28;20261;-73
2023/10/29 04:52:57;;;;;;;4.88;1.40;;;12.90;99.90;;;;;;5032762;28;20106;-72
2023/10/29 04:55:23;;;;;;;3.60;1.40;;;12.90;99.90;;;;;;5033087;28;20477;-72
2023/10/29 04:57:49;;;;;;;5.35;1.30;;;12.90;99.90;;;;;;5032678;28;20037;-72
2023/10/29 05:00:15;;;;;;;6.47;1.48;;;12.90;99.90;;;;;;5032726;28;20111;-72
2023/10/29 05:02:41;;;;;;;4.13;1.23;;;12.90;99.90;;;;;;5032898;28;20045;-73
2023/10/29 05:05:10;;;;;;;4.60;1.30;;;13.00;99.90;;;;;;5032884;28;20041;-72
2023/10/29 05:07:36;;;;;;;4.55;1.17;;;13.00;99.90;;;;;;5016106;28;20423;-72
2023/10/29 05:10:03;;;;;;;5.20;1.20;;;13.00;99.90;;;;;;5032852;28;20132;-72
2023/10/29 05:12:29;;;;;;;5.10;1.40;;;12.90;99.90;;;;;;5032413;28;20115;-73
2023/10/29 05:14:56;;;;;;;3.50;1.10;;;12.90;99.90;;;;;;5016445;28;20452;-72
2023/10/29 05:17:21;;;;;;;4.15;1.10;;;12.90;99.90;;;;;;5032733;28;20042;-72
2023/10/29 05:19:47;;;;;;;4.80;1.30;;;12.90;99.90;;;;;;5032295;28;20042;-72
2023/10/29 05:22:13;;;;;;;4.47;1.20;;;12.90;99.90;;;;;;5032286;28;20111;-72
2023/10/29 05:24:38;;;;;;;4.28;1.20;;;12.90;99.90;;;;;;5032286;28;20049;-72
2023/10/29 05:27:04;;;;;;;5.32;1.20;;;12.90;99.90;;;;;;5032431;28;20415;-72
2023/10/29 05:29:32;;;;;;;4.15;1.08;;;12.90;99.90;;;;;;5032173;28;20041;-73
2023/10/29 05:31:58;;;;;;;4.60;1.20;;;12.90;99.90;;;;;;5032233;28;20056;-72
2023/10/29 05:34:24;;;;;;;3.60;1.10;;;12.90;99.90;;;;;;5032256;28;20385;-73
2023/10/29 05:36:49;;;;;;;4.72;1.20;;;12.90;99.90;;;;;;5032151;28;20045;-73
2023/10/29 05:39:15;;;;;;;5.82;1.00;;;12.90;99.90;;;;;;5032285;28;20038;-73
2023/10/29 05:41:41;;;;;;;3.78;1.10;;;12.90;99.90;;;;;;5032192;28;20045;-72
2023/10/29 05:44:07;;;;;;;6.25;1.23;;;12.90;99.90;;;;;;5015526;28;20049;-72
2023/10/29 05:46:33;;;;;;;4.95;1.20;;;12.90;99.90;;;;;;5032013;28;20049;-73
2023/10/29 05:48:59;;;;;;;5.75;1.30;;;12.80;99.90;;;;;;5031922;28;20148;-72
2023/10/29 05:51:25;;;;;;;4.68;1.10;;;12.80;99.90;;;;;;5032093;28;20037;-72
2023/10/29 05:53:50;;;;;;;3.75;1.00;;;12.80;99.90;;;;;;5031803;28;20037;-72
2023/10/29 05:56:19;;;;;;;5.80;1.35;;;12.80;99.90;;;;;;5031854;28;20037;-73
2023/10/29 05:58:45;;;;;;;4.82;1.10;;;12.80;99.90;;;;;;5032059;28;20064;-72
2023/10/29 06:01:11;;;;;;;3.75;1.10;;;12.80;99.90;;;;;;5031955;28;20049;-72
2023/10/29 06:03:37;;;;;;;4.22;1.13;;;12.90;99.90;;;;;;5031819;28;20033;-72
2023/10/29 06:06:03;;;;;;;3.80;1.05;;;12.90;99.90;;;;;;5015256;28;20121;-72
2023/10/29 06:08:28;;;;;;;3.90;1.10;;;12.90;99.90;;;;;;5031736;28;20037;-72
2023/10/29 06:10:54;;;;;;;4.43;1.20;;;12.90;99.90;;;;;;5015185;28;20045;-72
2023/10/29 06:13:20;;;;;;;5.28;1.30;;;12.90;99.90;;;;;;5031648;28;20058;-72
2023/10/29 06:15:46;;;;;;;3.58;1.10;;;13.00;99.90;;;;;;5031617;28;20037;-72
2023/10/29 06:18:12;;;;;;;4.03;1.10;;;13.00;99.90;;;;;;5031915;28;20034;-72
2023/10/29 06:20:42;;;;;;;5.78;1.20;;;13.00;99.90;;;;;;5015170;28;20041;-73
2023/10/29 06:23:08;;;;;;;5.07;0.90;;;13.00;99.90;;;;;;5031574;28;20099;-72
2023/10/29 06:25:34;;;;;;;4.20;1.02;;;13.00;99.90;;;;;;5015153;28;20037;-72
2023/10/29 06:28:00;;;;;;;4.82;1.20;;;13.00;99.90;;;;;;5015344;28;20046;-72
2023/10/29 06:30:25;;;;;;;4.97;1.10;;;13.00;99.90;;;;;;5031738;28;20045;-72
2023/10/29 06:32:51;;;;;;;6.22;1.30;;;13.00;99.90;;;;;;5031427;28;20045;-72
2023/10/29 06:35:17;;;;;;;5.88;1.17;;;13.00;99.90;;;;;;5031462;28;20073;-72
2023/10/29 06:37:43;;;;;;;4.72;1.10;;;13.00;99.90;;;;;;5031703;28;20045;-72
2023/10/29 06:40:09;;;;;;;5.15;1.10;;;13.00;99.90;;;;;;5031748;28;20037;-72
2023/10/29 06:42:35;;;;;;;4.55;1.00;;;12.90;99.90;;;;;;5031540;28;20037;-72
2023/10/29 06:45:02;;;;;;;6.97;1.30;;;13.00;99.90;;;;;;5031503;28;20128;-72
2023/10/29 06:47:27;;;;;;;5.25;1.20;;;13.00;99.90;;;;;;5014971;28;20099;-72
2023/10/29 06:49:55;;;;;;;4.32;1.20;;;12.90;99.90;;;;;;5034247;28;20049;-72
2023/10/29 06:52:21;;;;;;;4.82;1.10;;;12.90;99.90;;;;;;5018598;28;20052;-72
2023/10/29 06:54:47;;;;;;;3.75;1.00;;;12.90;99.90;;;;;;5035270;28;20551;-72
2023/10/29 06:57:13;;;;;;;5.30;1.20;;;12.90;99.90;;;;;;5018840;28;20485;-72
2023/10/29 06:59:39;;;;;;;5.28;1.20;;;12.80;99.90;;;;;;5034888;28;20079;-74
2023/10/29 07:02:06;;;;;;;5.07;1.17;;;12.80;99.90;;;;;;5034854;28;20110;-74
2023/10/29 07:04:33;;;;;;;5.07;1.40;;;12.80;99.90;;;;;;5035124;28;20045;-73
2023/10/29 07:06:59;;;;;;;5.00;1.30;;;12.80;99.90;;;;;;5034886;28;20106;-74
2023/10/29 07:09:24;;;;;;;6.07;1.10;;;12.90;99.90;;;;;;5034783;28;20124;-74
2023/10/29 07:11:51;;;;;;;3.58;1.10;;;12.90;99.90;;;;;;5034561;28;20409;-73
2023/10/29 07:14:17;;;;;;;5.68;1.20;;;13.00;99.90;;;;;;5034686;28;20045;-74
2023/10/29 07:16:46;;;;;;;5.55;1.20;;;13.00;99.90;;;;;;5034943;28;20132;-73
2023/10/29 07:19:12;;;;;;;4.93;1.00;;;13.10;99.90;;;;;;5018003;28;20044;-73
2023/10/29 07:21:39;;;;;;;4.35;1.00;;;13.10;99.90;;;;;;5034520;28;20042;-72
2023/10/29 07:24:05;;;;;;;5.05;1.00;;;13.10;99.90;;;;;;5034557;28;20049;-74
2023/10/29 07:26:34;;;;;;;4.85;1.30;;;13.10;99.90;;;;;;5034374;28;20130;-73
2023/10/29 07:29:01;;;;;;;5.22;1.00;;;13.10;99.90;;;;;;5034985;28;20056;-73
2023/10/29 07:31:27;;;;;;;4.07;0.88;;;13.10;99.90;;;;;;5034578;28;20080;-73
2023/10/29 07:33:53;;;;;;;4.68;1.13;;;13.10;99.90;;;;;;5017939;28;20076;-73
2023/10/29 07:36:20;;;;;;;5.60;1.20;;;13.10;99.90;;;;;;5034624;28;20091;-74
2023/10/29 07:38:46;;;;;;;4.35;1.30;;;13.10;99.90;;;;;;5034121;28;20049;-73
2023/10/29 07:41:18;;;;;;;4.57;1.20;;;13.10;99.90;;;;;;5017811;28;20037;-73
2023/10/29 07:43:43;;;;;;;5.80;1.20;;;13.10;99.90;;;;;;5034230;28;20034;-73
2023/10/29 07:46:09;;;;;;;6.22;1.10;;;13.10;99.90;;;;;;5034017;28;20102;-73
2023/10/29 07:48:35;;;;;;;5.53;1.20;;;13.10;99.90;;;;;;5034401;28;20041;-73
2023/10/29 07:51:01;;;;;;;4.40;1.13;;;13.10;99.90;;;;;;5017423;28;20041;-72
2023/10/29 07:53:32;;;;;;;4.55;1.10;;;13.00;99.90;;;;;;5034242;28;20439;-73
2023/10/29 07:56:12;;;;;;;5.38;1.20;;;13.10;99.90;;;;;;5017771;28;20038;-74
2023/10/29 07:58:38;;;;;;;5.75;1.45;;;13.10;99.90;;;;;;5034071;28;20037;-73
2023/10/29 08:01:11;;;;;;;5.53;1.10;;;13.10;99.90;;;;;;5049153;28;20132;-73
2023/10/29 08:03:38;;;;;;;3.90;0.90;;;13.10;99.90;;;;;;5017345;28;20049;-75
2023/10/29 08:06:04;;;;;;;5.13;1.20;;;13.10;99.90;;;;;;5033710;28;20044;-73
2023/10/29 08:08:30;;;;;;;5.78;1.27;;;13.20;99.90;;;;;;5033716;28;20037;-73
2023/10/29 08:10:55;;;;;;;6.28;1.40;;;13.20;99.90;;;;;;5033493;28;20091;-72
2023/10/29 08:13:21;;;;;;;4.05;1.10;;;13.30;99.90;;;;;;5033339;28;20136;-72
2023/10/29 08:15:47;;;;;;;6.63;1.20;;;13.40;99.90;;;;;;5017061;28;20037;-72
2023/10/29 08:18:14;;;;;;;6.20;1.13;;;13.40;99.90;;;;;;5016982;28;20468;-72
2023/10/29 08:20:40;;;;;;;5.97;1.15;;;13.40;99.90;;;;;;5033405;28;20103;-73
2023/10/29 08:23:06;;;;;;;6.65;1.20;;;13.50;99.90;;;;;;5033427;28;20037;-73
2023/10/29 08:25:35;;;;;;;4.90;1.17;;;13.60;99.90;;;;;;5016878;28;20095;-73
2023/10/29 08:28:01;;;;;;;5.32;1.33;;;13.60;99.90;;;;;;5033642;28;20544;-72
2023/10/29 08:30:26;;;;;;;7.47;1.33;;;13.70;99.90;;;;;;5033730;28;20041;-72
2023/10/29 08:32:52;;;;;;;5.65;1.17;;;13.70;99.90;;;;;;5016504;28;20088;-74
2023/10/29 08:35:18;;;;;;;7.35;1.30;;;13.70;99.90;;;;;;5033166;28;20041;-73
2023/10/29 08:37:44;;;;;;;5.28;1.10;;;13.70;99.90;;;;;;5016604;28;20042;-73
2023/10/29 08:40:10;;;;;;;7.55;1.30;;;13.80;99.90;;;;;;5033222;28;20049;-72
2023/10/29 08:42:36;;;;;;;6.25;1.30;;;13.80;99.90;;;;;;5033025;28;20049;-72
2023/10/29 08:45:02;;;;;;;7.32;1.15;;;13.90;99.90;;;;;;5033017;28;20505;-73
2023/10/29 08:47:28;;;;;;;6.35;1.10;;;13.90;99.90;;;;;;5016517;28;20504;-73
2023/10/29 08:49:53;;;;;;;5.20;1.10;;;14.00;99.90;;;;;;5033237;28;20049;-73
2023/10/29 08:52:19;;;;;;;4.95;1.00;;;14.10;99.90;;;;;;5032841;28;20176;-74
2023/10/29 08:54:45;;;;;;;6.03;1.10;;;14.10;99.90;;;;;;5032754;28;20038;-73
2023/10/29 08:57:11;;;;;;;5.32;1.40;;;14.20;99.90;;;;;;5033025;28;20401;-73
2023/10/29 08:59:37;;;;;;;4.78;1.13;;;14.30;99.90;;;;;;5016484;28;20108;-73
2023/10/29 09:02:04;;;;;;;6.22;1.10;;;14.30;99.90;;;;;;5016405;28;20095;-74
2023/10/29 09:04:29;;;;;;;7.70;1.20;;;14.30;99.90;;;;;;5032720;28;20049;-74
2023/10/29 09:06:55;;;;;;;6.68;1.23;;;14.40;99.90;;;;;;5032971;28;20095;-73
2023/10/29 09:09:21;;;;;;;7.03;1.33;;;14.30;99.90;;;;;;5032407;28;20128;-74
2023/10/29 09:11:52;;;;;;;6.35;1.30;;;14.30;99.90;;;;;;5015474;28;20494;-74
2023/10/29 09:14:18;;;;;;;5.63;1.30;;;14.30;99.90;;;;;;5016286;28;20077;-75
2023/10/29 09:16:47;;;;;;;5.15;1.20;;;14.20;99.90;;;;;;5032299;28;20075;-74
2023/10/29 09:19:13;;;;;;;8.25;1.20;;;14.20;99.90;;;;;;5016287;28;20037;-74
2023/10/29 09:21:38;;;;;;;6.13;1.20;;;14.20;99.90;;;;;;5032304;28;20164;-74
2023/10/29 09:24:05;;;;;;;7.00;1.33;;;14.20;99.90;;;;;;5032175;28;20042;-73
2023/10/29 09:26:31;;;;;;;8.68;1.33;;;14.40;99.90;;;;;;5032274;28;20048;-74
2023/10/29 09:28:57;;;;;;;7.22;1.48;;;14.50;99.90;;;;;;5032289;28;20041;-74
2023/10/29 09:31:23;;;;;;;6.35;1.30;;;14.50;99.90;;;;;;5015947;28;20482;-74
2023/10/29 09:33:48;;;;;;;9.30;1.73;;;14.50;99.90;;;;;;5032430;28;20124;-74
2023/10/29 09:36:14;;;;;;;7.40;1.50;;;14.40;99.90;;;;;;5032051;28;20037;-73
2023/10/29 09:38:42;;;;;;;9.57;1.50;;;14.30;99.90;;;;;;5015852;28;20417;-74
2023/10/29 09:41:07;;;;;;;9.13;1.63;;;14.30;99.90;;;;;;5031994;28;20052;-74
2023/10/29 09:43:42;;;;;;;7.90;1.60;;;14.50;99.90;;;;;;5031807;28;20041;-73
2023/10/29 09:46:10;;;;;;;9.30;1.55;;;14.50;99.90;;;;;;5031922;28;20116;-75
2023/10/29 09:48:41;;;;;;;9.05;1.60;;;14.70;99.90;;;;;;5032260;28;20103;-74
2023/10/29 09:51:07;;;;;;;7.00;1.52;;;14.80;99.90;;;;;;5031836;28;20144;-72
2023/10/29 09:53:37;;;;;;;7.13;1.50;;;14.80;99.90;;;;;;5032110;28;20128;-72
2023/10/29 09:56:09;;;;;;;7.88;1.67;;;14.90;99.90;;;;;;5015449;28;20044;-73
2023/10/29 09:58:38;;;;;;;8.25;1.75;;;15.10;99.90;;;;;;5015351;28;20041;-73
2023/10/29 10:01:05;;;;;;;7.75;1.60;;;15.10;99.90;;;;;;5032018;28;20537;-73
2023/10/29 10:03:32;;;;;;;8.52;1.80;;;15.20;99.90;;;;;;5031706;28;20094;-70
2023/10/29 10:05:58;;;;;;;8.50;1.60;;;15.10;99.90;;;;;;5031715;28;20045;-70
2023/10/29 10:08:29;;;;;;;7.68;1.42;;;15.00;99.90;;;;;;5031609;28;20088;-70
2023/10/29 10:10:59;;;;;;;9.57;1.80;;;14.80;99.90;;;;;;5031887;28;20497;-70
2023/10/29 10:13:39;;;;;;;8.05;1.75;;;14.70;99.90;;;;;;5031398;28;20053;-70
2023/10/29 10:16:10;;;;;;;7.82;1.80;;;14.60;99.90;;;;;;5031875;28;20481;-69
2023/10/29 10:18:50;;;;;;;8.63;1.77;;;14.50;99.90;;;;;;5031837;28;20095;-70
2023/10/29 10:21:20;;;;;;;10.48;2.00;;;14.50;99.90;;;;;;5031783;28;20398;-69
2023/10/29 10:23:58;;;;;;;10.30;1.80;;;14.40;99.90;;;;;;5032909;28;20044;-70
2023/10/29 10:26:35;;;;;;;8.73;1.73;;;14.40;99.90;;;;;;5019093;28;20037;-70
2023/10/29 10:29:03;;;;;;;8.70;1.80;;;14.30;99.90;;;;;;5036010;28;20037;-71
2023/10/29 10:31:31;;;;;;;7.75;1.60;;;14.30;99.90;;;;;;5035529;28;20053;-70
2023/10/29 10:34:10;;;;;;;7.65;1.63;;;14.30;99.90;;;;;;5035797;28;20041;-71
2023/10/29 10:36:36;;;;;;;7.30;1.67;;;14.30;99.90;;;;;;5035696;28;20076;-70
2023/10/29 10:39:02;;;;;;;7.60;1.58;;;14.40;99.90;;;;;;5019184;28;20041;-70
2023/10/29 10:41:41;;;;;;;7.88;1.70;;;14.40;99.90;;;;;;5035542;28;20045;-68
2023/10/29 10:44:10;;;;;;;9.00;1.52;;;14.50;99.90;;;;;;5035249;28;20071;-69
2023/10/29 10:46:40;;;;;;;6.95;1.55;;;14.50;99.90;;;;;;5035632;28;20048;-69
2023/10/29 10:49:07;;;;;;;8.73;1.67;;;14.70;99.90;;;;;;5035407;28;20064;-68
2023/10/29 10:51:35;;;;;;;9.93;1.70;;;14.80;99.90;;;;;;5035092;28;20042;-68
2023/10/29 10:54:03;;;;;;;8.20;1.88;;;14.90;99.90;;;;;;5018375;28;20092;-72
2023/10/29 10:56:36;;;;;;;8.23;1.80;;;15.00;99.90;;;;;;5034885;28;20033;-69
2023/10/29 10:59:07;;;;;;;8.80;1.67;;;15.10;99.90;;;;;;5018552;28;20045;-68
2023/10/29 11:01:35;;;;;;;9.35;1.77;;;15.10;99.90;;;;;;5018707;28;20136;-69
2023/10/29 11:04:03;;;;;;;9.95;1.80;;;15.10;99.90;;;;;;5035120;28;20049;-68
2023/10/29 11:06:32;;;;;;;7.85;1.60;;;15.00;99.90;;;;;;5034998;28;20132;-69
2023/10/29 11:08:59;;;;;;;8.10;1.67;;;14.90;99.90;;;;;;5034892;28;20041;-69
2023/10/29 11:11:38;;;;;;;8.32;1.80;;;14.80;99.90;;;;;;5034743;28;20041;-68
2023/10/29 11:14:12;;;;;;;10.30;1.75;;;14.70;99.90;;;;;;5036134;28;20049;-68
2023/10/29 11:17:05;;;;;;;9.30;1.80;;;14.70;99.90;;;;;;5034681;28;20077;-68
2023/10/29 11:19:45;;;;;;;10.70;2.00;;;14.70;99.90;;;;;;5032003;28;20051;-68
2023/10/29 11:22:31;;;;;;;8.40;1.70;;;14.70;99.90;;;;;;5034751;28;20083;-69
2023/10/29 11:25:08;;;;;;;9.80;2.00;;;14.70;99.90;;;;;;5034469;28;20049;-68
2023/10/29 11:27:35;;;;;;;8.95;1.80;;;14.80;99.90;;;;;;5018185;28;20041;-69
2023/10/29 11:30:27;;;;;;;7.20;1.70;;;14.90;99.90;;;;;;5034370;28;20084;-69
2023/10/29 11:33:17;;;;;;;7.93;1.70;;;15.00;99.90;;;;;;5034335;28;20038;-69
2023/10/29 11:35:44;;;;;;;7.20;1.73;;;15.00;99.90;;;;;;5033935;28;20041;-69
2023/10/29 11:38:37;;;;;;;7.20;1.70;;;15.00;99.90;;;;;;5034318;28;20037;-69
2023/10/29 11:41:35;;;;;;;8.52;1.50;;;15.10;99.90;;;;;;5034138;28;20048;-70
2023/10/29 11:44:33;;;;;;;7.32;1.60;;;15.10;99.90;;;;;;5018044;28;20105;-69
2023/10/29 11:46:59;;;;;;;9.13;1.60;;;15.20;99.90;;;;;;5001625;28;20050;-71
2023/10/29 11:49:28;;;;;;;8.60;1.70;;;15.20;99.90;;;;;;5018015;28;20041;-73
2023/10/29 11:52:01;;;;;;;7.28;1.60;;;15.10;99.90;;;;;;5034067;28;20041;-73
2023/10/29 11:54:29;;;;;;;7.80;1.70;;;15.10;99.90;;;;;;5050614;28;20046;-73
2023/10/29 11:56:57;;;;;;;5.82;1.60;;;15.10;99.90;;;;;;5017426;28;20073;-73
2023/10/29 11:59:23;;;;;;;8.00;1.60;;;15.10;99.90;;;;;;5017338;28;20034;-73
2023/10/29 12:01:49;;;;;;;6.80;1.50;;;15.10;99.90;;;;;;5033872;28;20067;-72
2023/10/29 12:04:15;;;;;;;7.97;1.60;;;15.10;99.90;;;;;;5033910;28;20066;-72
2023/10/29 12:06:44;;;;;;;9.70;1.50;;;15.10;99.90;;;;;;5034071;28;20064;-73
2023/10/29 12:09:21;;;;;;;8.13;1.70;;;15.00;99.90;;;;;;5017281;28;20136;-72
2023/10/29 12:11:54;;;;;;;8.07;1.60;;;15.00;99.90;;;;;;5033475;28;20061;-72
2023/10/29 12:14:46;;;;;;;9.27;1.80;;;14.90;99.90;;;;;;5033851;28;20051;-72
2023/10/29 12:17:14;;;;;;;7.90;1.30;;;14.90;99.90;;;;;;5034051;28;20090;-73
2023/10/29 12:19:42;;;;;;;7.78;1.60;;;14.90;99.90;;;;;;5033467;28;20056;-73
2023/10/29 12:22:24;;;;;;;8.63;1.85;;;14.80;99.90;;;;;;5033618;28;20088;-73
2023/10/29 12:24:53;;;;;;;7.30;1.50;;;14.80;99.90;;;;;;5017263;28;20175;-72
2023/10/29 12:27:22;;;;;;;8.18;1.60;;;14.70;99.90;;;;;;5033667;28;20516;-73
2023/10/29 12:29:49;;;;;;;8.57;1.70;;;14.70;99.90;;;;;;5017238;28;20041;-72
2023/10/29 12:32:17;;;;;;;7.53;1.70;;;14.80;99.90;;;;;;5033191;28;20056;-72
2023/10/29 12:34:48;;;;;;;8.27;1.80;;;14.70;99.90;;;;;;5033297;28;20038;-72
2023/10/29 12:37:22;;;;;;;6.87;1.60;;;14.60;99.90;;;;;;5033212;28;20171;-73
2023/10/29 12:39:49;;;;;;;8.43;1.83;;;14.60;99.90;;;;;;5033361;28;20041;-73
2023/10/29 12:42:15;;;;;;;8.38;1.55;;;14.50;99.90;;;;;;5016509;28;20049;-72
2023/10/29 12:44:51;;;;;;;6.45;1.60;;;14.50;99.90;;;;;;5032832;28;20409;-72
2023/10/29 12:47:17;;;;;;;8.65;1.92;;;14.50;99.90;;;;;;5032232;28;20041;-72